Nowcasting estate 2019

Area dedicata a nowcasting, previsioni del tempo e discussioni sul tempo che verrà.

Re: Nowcasting estate 2019

Messaggioda Franco52 » 17 ago 2019, 9:29

Immagine

Immagine

Immagine

Immagine




Buongiorno a tutti


Forlì Sabato 17 Agosto 2019



Questa Mattina a Forlì alle h 09,19 la Temperatura è di 23,0 °C , la Minima di 16,9 °C , Sereno , Foschia , Vento da SW , Raffica max vento 9,7 km/h e l'Umidità è del 64 %


Osservatorio Meteorologico di Forlì Ronco Rotonda Aeroporto ( FC ) Altitudine 43 mt. s.l.m.
LATIT 44.12,21 - LONG 12.04,37


Ultimo Aggiornamento del 17 - 08 - 2019 h 09 : 01 : 00



Temperatura

Attuale 21,7 °C
HEAT 21,9 °C
Min 16,9 °C
Max 21,7 °C

Umidità

Attuale 68 %
Dew Point 15,5 °C
Pressione 1018,5 hPa ( in Aumento 3 mlb/h )


Vento

Attuale 0,0 km/h da SW
Raffica massima 9,7 km/h
Velocità Media 0,0 km/h da SW


Pioggia

Oggi 0,0 mm
Rain Storm 0,0 mm
Rain Rate min 0,0 mm/h
Rain Rate 0,0 mm/h
Mese 25,7 mm
Anno 458,5 mm


Sereno , Foschia


la Situazione Italiana vista dal Sat

Immagine

Immagine




Mappa SWLL delle 6z e delle 12z






Immagine

Immagine




il Radar Europeo


Immagine

Immagine

Immagine




le TAF delle 5z Prevedono




da Sereno a Parzialmente Sereno , Nessuna Nube Significativa




BOLOGNA

TAF LIPE 170500Z 1706/1806 VRB05KT CAVOK=

FORLI'

Dati non Pervenuti

CERVIA

TAF LIPC 170500Z 1706/1715 VRB03KT CAVOK BECMG 1710/1712 09010KT=

RIMINI

TAF LIPR 170500Z 1706/1715 29008KT CAVOK BECMG 1710/1712 02010KT=











:ciao: :ciao:
Avatar utente
Franco52
 
Messaggi: 1684
Iscritto il: 14 ott 2012, 13:05
Località: Forlì Ronco rotonda Aeroporto

Re: Nowcasting estate 2019

Messaggioda Geloneve » 18 ago 2019, 8:27

Cielo sereno, vento assente e temperatura minima di +13,8°c.

Ieri temperatura massima di +30,2°c.
W il GELO e la NEVE!
==============================================================================================
Stazione meteo Davis Vantage Pro 2 - Loc. San Biagio - Faenza (RA) - 32 m. S.L.M. - tra Faenza e Forlì, a 851 m. dal comune di Forlì: http://geloneve.dyndns.org/ Webcam: http://www.geloneve.it/webcam2/sanbiagio.jpg
Avatar utente
Geloneve
 
Messaggi: 10423
Iscritto il: 19 nov 2010, 17:17
Località: San Biagio (RA) - 32 m. S.L.M. - Tra Forlì (FC) e Faenza (RA), a 851 m. dal comune di Forlì (FC)

Re: Nowcasting estate 2019

Messaggioda Geloneve » 19 ago 2019, 5:53

Cielo poco nuvoloso, vento assente e temperatura minima di +15,3°c.

Ieri temperatura massima di +32,4°c.
W il GELO e la NEVE!
==============================================================================================
Stazione meteo Davis Vantage Pro 2 - Loc. San Biagio - Faenza (RA) - 32 m. S.L.M. - tra Faenza e Forlì, a 851 m. dal comune di Forlì: http://geloneve.dyndns.org/ Webcam: http://www.geloneve.it/webcam2/sanbiagio.jpg
Avatar utente
Geloneve
 
Messaggi: 10423
Iscritto il: 19 nov 2010, 17:17
Località: San Biagio (RA) - 32 m. S.L.M. - Tra Forlì (FC) e Faenza (RA), a 851 m. dal comune di Forlì (FC)

Re: Nowcasting estate 2019

Messaggioda Geloneve » 20 ago 2019, 7:15

Cielo sereno, vento assente e temperatura minima di +14,9°c.

Ieri temperatura minima ritoccata a +14,9°c e temperatura massima di +34,5°c.

Oggi e domani saranno l'apice del caldo.
W il GELO e la NEVE!
==============================================================================================
Stazione meteo Davis Vantage Pro 2 - Loc. San Biagio - Faenza (RA) - 32 m. S.L.M. - tra Faenza e Forlì, a 851 m. dal comune di Forlì: http://geloneve.dyndns.org/ Webcam: http://www.geloneve.it/webcam2/sanbiagio.jpg
Avatar utente
Geloneve
 
Messaggi: 10423
Iscritto il: 19 nov 2010, 17:17
Località: San Biagio (RA) - 32 m. S.L.M. - Tra Forlì (FC) e Faenza (RA), a 851 m. dal comune di Forlì (FC)

Re: Nowcasting estate 2019

Messaggioda Franco52 » 21 ago 2019, 9:57

Immagine

Immagine

Immagine

Immagine





Buongiorno a tutti


Forlì Mercoledì 21 Agosto 2019



Questa Mattina a Forlì alle h 09,39 la Temperatura è di 26,8 °C , la Minima di 21,7 °C , Sereno , Foschia , Vento da NW , Raffica max vento 12,9 km/h e l'Umidità è del 63 %


Osservatorio Meteorologico di Forlì Ronco Rotonda Aeroporto ( FC ) Altitudine 43 mt. s.l.m.
LATIT 44.12,21 - LONG 12.04,37


Ultimo Aggiornamento del 21 - 08 - 2019 h 09 : 16 : 00



Temperatura

Attuale 25,8 °C
HEAT 26,3 °C
Min 21,7 °C
Max 25,8 °C

Umidità

Attuale 61 %
Dew Point 17,7 °C
Pressione 1018,2 hPa ( in Aumento 3 mlb/h )


Vento

Attuale 3,2 km/h da W NW
Raffica massima 12,9 km/h
Velocità Media 3,2 km/h da W NW


Pioggia

Oggi 0,0 mm
Rain Storm 0,0 mm
Rain Rate min 0,0 mm/h
Rain Rate 0,0 mm/h
Mese 25,7 mm
Anno 458,5 mm


Sereno , Foschia


la Situazione Italiana vista dal Sat

Immagine

Immagine




Mappa SWLL delle 6z e delle 12z





Immagine

[imghttp://www.meteoam.it/Storage/Catop/2019-08-21/CNMC_FAX_201908210000_ITALIA_SW@@@@@@_999100@@@@@@_012_000_@@@@.GIF[/img]




il Radar Europeo


Immagine

Immagine

Immagine




le TAF delle 5z Prevedono




da Parzialmente Sereno a Nuvoloso sul Bolognese con probabili temporali nel pomeriggio




BOLOGNA

TAF LIPE 210500Z 2106/2206 VRB05KT 9999 FEW030 PROB40 TEMPO 2112/2118 TSRA=

FORLI'

Dati non Pervenuti

CERVIA

TAF LIPC 210500Z 2106/2115 29005KT CAVOK BECMG 2110/2112 07010KT=

RIMINI

TAF LIPR 210500Z 2106/2115 VRB05KT CAVOK BECMG 2110/2112 05010KT=











:ciao: :ciao:
Avatar utente
Franco52
 
Messaggi: 1684
Iscritto il: 14 ott 2012, 13:05
Località: Forlì Ronco rotonda Aeroporto

Re: Nowcasting estate 2019

Messaggioda Franco52 » 22 ago 2019, 9:33

Immagine

Immagine

Immagine

Immagine




Buongiorno a tutti


Forlì Giovedì 22 Agosto 2019



Questa Mattina a Forlì alle h 09,24 la Temperatura è di 23,2 °C , la Minima di 22,1 °C , Nuvoloso , Foschia , Vento da N , Raffica max vento 14,5 km/h e l'Umidità è del 82 %


Osservatorio Meteorologico di Forlì Ronco Rotonda Aeroporto ( FC ) Altitudine 43 mt. s.l.m.
LATIT 44.12,21 - LONG 12.04,37


Ultimo Aggiornamento del 22 - 08 - 2019 h 09 : 06 : 00



Temperatura

Attuale 22,8 °C
HEAT 23,9 °C
Min 24,1 °C
Max 24,0 °C

Umidità

Attuale 83 %
Dew Point 19,8 °C
Pressione 1021,2 hPa ( in Aumento 3 mlb/h )


Vento

Attuale 0,0 km/h da W NW
Raffica massima 14,5 km/h
Velocità Media 0,0 km/h da W NW


Pioggia

Oggi 0,0 mm
Rain Storm 0,0 mm
Rain Rate min 0,0 mm/h
Rain Rate 0,0 mm/h
Mese 25,7 mm
Anno 458,5 mm


Nuvoloso , Foschia


la Situazione Italiana vista dal Sat

Immagine

Immagine




Mappa SWLL delle 6z e delle 12z





Immagine

Immagine




il Radar Europeo


Immagine

Immagine

Immagine




le TAF delle 5z Prevedono





da nuvoloso a molto nuvoloso con piogge sparse




BOLOGNA

TAF LIPE 220500Z 2206/2306 VRB05KT 9999 SCT040 TEMPO 2218/2306 RA=

FORLI'

Dati non Pervenuti

CERVIA

TAF LIPC 220500Z 2206/2215 08005KT CAVOK BECMG 2209/2211 05010KT 9999 SCT060=

RIMINI

TAF LIPR 220500Z 2206/2215 VRB04KT 9999 SCT030 BECMG 2209/2211 05010KT TEMPO 2210/2215 SHRA=











:ciao: :ciao:
Avatar utente
Franco52
 
Messaggi: 1684
Iscritto il: 14 ott 2012, 13:05
Località: Forlì Ronco rotonda Aeroporto

Re: Nowcasting estate 2019

Messaggioda Franco52 » 23 ago 2019, 9:44

Immagine

Immagine

Immagine

Immagine



Buongiorno a tutti


Forlì Venerdì 23 Agosto 2019



Questa Mattina a Forlì alle h 09,32 la Temperatura è di 22,7 °C , la Minima di 21,2 °C , Nuvoloso , Foschia , Vento da NW , Raffica max vento 12,9 km/h e l'Umidità è del 79 %


Osservatorio Meteorologico di Forlì Ronco Rotonda Aeroporto ( FC ) Altitudine 43 mt. s.l.m.
LATIT 44.12,21 - LONG 12.04,37


Ultimo Aggiornamento del 23 - 08 - 2019 h 09 : 16 : 00



Temperatura

Attuale 22,4 °C
HEAT 23,3 °C
Min 21,2 °C
Max 22,6 °C

Umidità

Attuale 81 %
Dew Point 19,0 °C
Pressione 1022,8 hPa ( in Aumento 3 mlb/h )


Vento

Attuale 0,0 km/h da NW
Raffica massima 8,0 km/h
Velocità Media 0,0 km/h da NW


Pioggia

Oggi 0,0 mm
Rain Storm 0,8 mm
Rain Rate min 0,0 mm/h
Rain Rate 0,0 mm/h
Mese 26,4 mm
Anno 459,2 mm


Nuvoloso , Foschia


la Situazione Italiana vista dal Sat

Immagine

Immagine




Mappa SWLL delle 6z e delle 12z




Immagine

Immagine




il Radar Europeo


Immagine

Immagine

Immagine




le TAF delle 5z Prevedono




da nuvoloso a molto nuvoloso con piogge sparse sulla Romagna




BOLOGNA

TAF LIPE 230500Z 2306/2406 VRB05KT 9999 SCT040 TEMPO 2306/2309 TSRA=

FORLI'

Dati non Pervenuti

CERVIA

TAF LIPC 230500Z 2306/2315 29008KT 9999 FEW030 TEMPO 2308/2312 5000 RA BR BKN025=

RIMINI

TAF LIPR 230500Z 2306/2315 VRB05KT 9999 SCT030 TEMPO 2306/2312 TSRA BECMG 2308/2310 03010KT=











:ciao: :ciao:
Avatar utente
Franco52
 
Messaggi: 1684
Iscritto il: 14 ott 2012, 13:05
Località: Forlì Ronco rotonda Aeroporto

Re: Nowcasting estate 2019

Messaggioda Franco52 » 24 ago 2019, 10:11

Immagine

Immagine

Immagine

Immagine





Buongiorno a tutti


Forlì Sabato 24 Agosto 2019



Questa Mattina a Forlì alle h 10,01 la Temperatura è di 25,3 °C , la Minima di 20,9 °C , Nuvoloso , Foschia , Vento da W NW , Raffica max vento 17,7 km/h e l'Umidità è del 71 %


Osservatorio Meteorologico di Forlì Ronco Rotonda Aeroporto ( FC ) Altitudine 43 mt. s.l.m.
LATIT 44.12,21 - LONG 12.04,37


Ultimo Aggiornamento del 24 - 08 - 2019 h 09 : 41 : 00



Temperatura

Attuale 25,2 °C
HEAT 26,5 °C
Min 20,9 °C
Max 25,2 °C

Umidità

Attuale 73 %
Dew Point 20,0 °C
Pressione 1020,3 hPa ( Stabile )


Vento

Attuale 4,8 km/h da NW
Raffica massima 12,9 km/h
Velocità Media 4,8 km/h da NW


Pioggia

Oggi 0,0 mm
Rain Storm 0,0 mm
Rain Rate min 0,0 mm/h
Rain Rate 0,0 mm/h
Mese 26,4 mm
Anno 459,2 mm


Nuvoloso , Foschia


la Situazione Italiana vista dal Sat

Immagine

Immagine




Mappa SWLL delle 6z e delle 12z





Immagine

Immagine




il Radar Europeo


Immagine

Immagine

Immagine




le TAF delle 5z Prevedono




da nuvoloso a molto nuvoloso con piogge sparse sulla Romagna




BOLOGNA

TAF LIPE 240500Z 2406/2506 VRB05KT 9999 SCT040 TEMPO 2406/2409 SHRA TEMPO 2415/2420 4000 TSRA=

FORLI'

Dati non Pervenuti

CERVIA

TAF LIPC 240500Z 2406/2415 25008KT 9999 FEW040 BECMG 2412/2414 09010KT=

RIMINI

TAF LIPR 240500Z 2406/2415 28010KT 9999 SCT030 TEMPO 2406/2408 RA BECMG 2410/2412 04010KT=











:ciao: :ciao:
Avatar utente
Franco52
 
Messaggi: 1684
Iscritto il: 14 ott 2012, 13:05
Località: Forlì Ronco rotonda Aeroporto

Re: Nowcasting estate 2019

Messaggioda Geloneve » 24 ago 2019, 19:30

Cielo quasi nuvoloso, temporale vicino, vento assente, temperatura minima di +20,4°c, temperatura massima di +31,9°c.

23/08/19: temperatura minima di +19,3°c, temperatura massima di +27,9°c;
22/08/19: temperatura minima di +20,2°c, temperatura massima di +28,9°c, caduti 1,6 mm di pioggia;
21/08/19: temperatura minima di +18,1°c, temperatura massima di +33,7°c, caduti 0,2 mm di pioggia;
20/08/19: temperatura massima di +34,5°c.
W il GELO e la NEVE!
==============================================================================================
Stazione meteo Davis Vantage Pro 2 - Loc. San Biagio - Faenza (RA) - 32 m. S.L.M. - tra Faenza e Forlì, a 851 m. dal comune di Forlì: http://geloneve.dyndns.org/ Webcam: http://www.geloneve.it/webcam2/sanbiagio.jpg
Avatar utente
Geloneve
 
Messaggi: 10423
Iscritto il: 19 nov 2010, 17:17
Località: San Biagio (RA) - 32 m. S.L.M. - Tra Forlì (FC) e Faenza (RA), a 851 m. dal comune di Forlì (FC)

Re: Nowcasting estate 2019

Messaggioda Geloneve » 25 ago 2019, 7:30

Cielo quasi nuvoloso, vento assente e temperatura minima di +20,6°c.
W il GELO e la NEVE!
==============================================================================================
Stazione meteo Davis Vantage Pro 2 - Loc. San Biagio - Faenza (RA) - 32 m. S.L.M. - tra Faenza e Forlì, a 851 m. dal comune di Forlì: http://geloneve.dyndns.org/ Webcam: http://www.geloneve.it/webcam2/sanbiagio.jpg
Avatar utente
Geloneve
 
Messaggi: 10423
Iscritto il: 19 nov 2010, 17:17
Località: San Biagio (RA) - 32 m. S.L.M. - Tra Forlì (FC) e Faenza (RA), a 851 m. dal comune di Forlì (FC)

PrecedenteProssimo

Torna a Meteorologia

Chi c’è in linea

Visitano il forum: Nessuno e 9 ospiti

cron